Time;durP1;ratioP1;P1;durP2;ratioP2;P2;SDS_P1;SDS_P2;PMS_P1;PMS_P2;Temp;Humidity;BMP_temperature;BMP_pressure;BME280_temperature;BME280_humidity;BME280_pressure;Samples;Min_cycle;Max_cycle;Signal;HPM_P1;HPM_P2
2022/05/05 00:01:11;;;;;;;;;;;;;;;;;;4926325;28;118923;-66
2022/05/05 00:03:38;;;;;;;;;;;;;;;;;;4923410;28;131515;-66
2022/05/05 00:06:04;;;;;;;;;;;;;;;;;;4925056;28;106117;-66
2022/05/05 00:08:30;;;;;;;;;;;;;;;;;;4921882;28;137885;-66
2022/05/05 00:16:27;;;;;;;;;;;;;;;;;;4929746;28;137134;-68
2022/05/05 00:18:53;;;;;;;;;;;;;;;;;;4927065;28;136429;-66
2022/05/05 00:21:19;;;;;;;;;;;;;;;;;;4918735;28;137290;-66
2022/05/05 00:23:46;;;;;;;;;;;;;;;;;;4923982;28;130011;-66
2022/05/05 00:26:12;;;;;;;;;;;;;;;;;;4924545;28;136552;-66
2022/05/05 00:28:38;;;;;;;;;;;;;;;;;;4926532;28;115563;-66
2022/05/05 00:31:04;;;;;;;;;;;;;;;;;;4922897;28;129742;-66
2022/05/05 00:33:31;;;;;;;;;;;;;;;;;;4928973;28;135472;-66
2022/05/05 00:35:57;;;;;;;;;;;;;;;;;;4926731;28;135502;-66
2022/05/05 00:38:24;;;;;;;;;;;;;;;;;;4922646;28;129097;-66
2022/05/05 00:40:50;;;;;;;;;;;;;;;;;;4924239;28;137576;-66
2022/05/05 00:43:16;;;;;;;;;;;;;;;;;;4926404;28;128033;-65
2022/05/05 00:45:43;;;;;;;;;;;;;;;;;;4921980;28;136965;-69
2022/05/05 00:48:09;;;;;;;;;;;;;;;;;;4929403;28;135919;-65
2022/05/05 00:50:36;;;;;;;;;;;;;;;;;;4930402;28;129250;-65
2022/05/05 00:53:02;;;;;;;;;;;;;;;;;;4924012;28;135436;-67
2022/05/05 00:55:28;;;;;;;;;;;;;;;;;;4930965;28;119100;-68
2022/05/05 00:57:54;;;;;;;;;;;;;;;;;;4927018;28;129953;-65
2022/05/05 01:00:21;;;;;;;;;;;;;;;;;;4927821;28;137268;-67
2022/05/05 01:02:47;;;;;;;;;;;;;;;;;;4927889;28;129306;-67
2022/05/05 01:05:13;;;;;;;;;;;;;;;;;;4931174;28;136945;-66
2022/05/05 01:07:40;;;;;;;;;;;;;;;;;;4930502;28;135719;-66
2022/05/05 01:10:06;;;;;;;;;;;;;;;;;;4925586;28;127902;-65
2022/05/05 01:12:33;;;;;;;;;;;;;;;;;;4929032;28;135669;-68
2022/05/05 01:15:00;;;;;;;;;;;;;;;;;;4926855;28;122119;-67
2022/05/05 01:17:26;;;;;;;;;;;;;;;;;;4924842;28;129680;-68
2022/05/05 01:19:52;;;;;;;;;;;;;;;;;;4932569;28;134091;-67
2022/05/05 01:22:19;;;;;;;;;;;;;;;;;;4930837;28;137975;-67
2022/05/05 01:30:16;;;;;;;;;;;;;;;;;;4930276;28;128002;-67
2022/05/05 01:32:42;;;;;;;;;;;;;;;;;;4917969;28;137488;-66
2022/05/05 01:35:09;;;;;;;;;;;;;;;;;;4910619;28;110809;-66
2022/05/05 01:37:35;;;;;;;;;;;;;;;;;;4929585;28;130252;-66
2022/05/05 01:40:01;;;;;;;;;;;;;;;;;;4927240;28;135441;-66
2022/05/05 01:42:28;;;;;;;;;;;;;;;;;;4918487;28;137148;-66
2022/05/05 01:44:54;;;;;;;;;;;;;;;;;;4933649;28;129180;-66
2022/05/05 01:47:20;;;;;;;;;;;;;;;;;;4928021;28;131793;-66
2022/05/05 01:49:47;;;;;;;;;;;;;;;;;;4934514;28;122388;-66
2022/05/05 01:52:13;;;;;;;;;;;;;;;;;;4926308;28;133858;-66
2022/05/05 01:54:39;;;;;;;;;;;;;;;;;;4908222;28;138015;-66
2022/05/05 01:57:06;;;;;;;;;;;;;;;;;;4918722;28;127945;-66
2022/05/05 01:59:33;;;;;;;;;;;;;;;;;;4921051;28;136448;-66
2022/05/05 02:02:00;;;;;;;;;;;;;;;;;;4939930;28;137073;-66
2022/05/05 02:04:26;;;;;;;;;;;;;;;;;;4933087;28;127916;-66
2022/05/05 02:06:53;;;;;;;;;;;;;;;;;;4924638;28;134613;-66
2022/05/05 02:09:19;;;;;;;;;;;;;;;;;;4925023;28;129365;-66
2022/05/05 02:11:45;;;;;;;;;;;;;;;;;;4929411;28;132521;-65
2022/05/05 02:14:12;;;;;;;;;;;;;;;;;;4929627;28;135742;-66
2022/05/05 02:16:38;;;;;;;;;;;;;;;;;;4929549;28;106688;-67
2022/05/05 02:19:04;;;;;;;;;;;;;;;;;;4925674;28;137472;-66
2022/05/05 02:21:30;;;;;;;;;;;;;;;;;;4924825;28;136925;-66
2022/05/05 02:23:57;;;;;;;;;;;;;;;;;;4922721;28;129066;-66
2022/05/05 02:26:23;;;;;;;;;;;;;;;;;;4932529;28;137007;-67
2022/05/05 02:28:49;;;;;;;;;;;;;;;;;;4923415;28;106286;-66
2022/05/05 02:31:16;;;;;;;;;;;;;;;;;;4925943;28;135144;-66
2022/05/05 02:33:42;;;;;;;;;;;;;;;;;;4927478;28;137457;-66
2022/05/05 02:38:55;;;;;;;;;;;;;;;;;;4916062;28;135740;-66
2022/05/05 02:41:21;;;;;;;;;;;;;;;;;;4927856;28;137566;-65
2022/05/05 02:43:47;;;;;;;;;;;;;;;;;;4925128;28;105651;-65
2022/05/05 02:46:14;;;;;;;;;;;;;;;;;;4924894;28;135172;-66
2022/05/05 02:48:40;;;;;;;;;;;;;;;;;;4929993;28;126609;-66
2022/05/05 02:51:06;;;;;;;;;;;;;;;;;;4925156;28;108255;-66
2022/05/05 02:56:17;;;;;;;;;;;;;;;;;;4926247;28;129752;-66
2022/05/05 02:58:44;;;;;;;;;;;;;;;;;;4925599;28;135071;-66
2022/05/05 03:01:10;;;;;;;;;;;;;;;;;;4922665;28;135821;-66
2022/05/05 03:03:36;;;;;;;;;;;;;;;;;;4926922;28;122952;-66
2022/05/05 03:06:02;;;;;;;;;;;;;;;;;;4901054;28;134992;-67
2022/05/05 03:08:29;;;;;;;;;;;;;;;;;;4902327;28;108591;-66
2022/05/05 03:10:55;;;;;;;;;;;;;;;;;;4910082;28;127854;-66
2022/05/05 03:13:21;;;;;;;;;;;;;;;;;;4900102;28;138372;-66
2022/05/05 03:15:48;;;;;;;;;;;;;;;;;;4902261;28;129828;-66
2022/05/05 03:18:14;;;;;;;;;;;;;;;;;;4909034;28;127608;-66
2022/05/05 03:20:40;;;;;;;;;;;;;;;;;;4903101;28;137051;-66
2022/05/05 03:23:06;;;;;;;;;;;;;;;;;;4906109;28;129201;-66
2022/05/05 03:25:33;;;;;;;;;;;;;;;;;;4904796;28;136037;-65
2022/05/05 03:27:59;;;;;;;;;;;;;;;;;;4907508;28;135629;-66
2022/05/05 03:30:25;;;;;;;;;;;;;;;;;;4902600;28;128972;-67
2022/05/05 03:32:51;;;;;;;;;;;;;;;;;;4908937;28;136334;-66
2022/05/05 03:35:18;;;;;;;;;;;;;;;;;;4898535;28;123350;-66
2022/05/05 03:37:44;;;;;;;;;;;;;;;;;;4905216;28;107117;-66
2022/05/05 03:40:11;;;;;;;;;;;;;;;;;;4897030;28;136817;-66
2022/05/05 03:42:37;;;;;;;;;;;;;;;;;;4894761;28;126551;-66
2022/05/05 03:45:03;;;;;;;;;;;;;;;;;;4908214;28;122588;-66
2022/05/05 03:47:29;;;;;;;;;;;;;;;;;;4908282;28;112296;-65
2022/05/05 03:49:56;;;;;;;;;;;;;;;;;;4904855;28;129082;-66
2022/05/05 03:52:22;;;;;;;;;;;;;;;;;;4904241;28;136958;-66
2022/05/05 03:54:49;;;;;;;;;;;;;;;;;;4909601;28;106894;-66
2022/05/05 03:57:15;;;;;;;;;;;;;;;;;;4904973;28;136431;-66
2022/05/05 03:59:41;;;;;;;;;;;;;;;;;;4906369;28;138787;-66
2022/05/05 04:02:07;;;;;;;;;;;;;;;;;;4905898;28;128982;-66
2022/05/05 04:04:34;;;;;;;;;;;;;;;;;;4907389;28;134446;-66
2022/05/05 04:07:00;;;;;;;;;;;;;;;;;;4933722;28;119311;-65
2022/05/05 04:09:26;;;;;;;;;;;;;;;;;;4920174;28;129353;-66
2022/05/05 04:11:53;;;;;;;;;;;;;;;;;;4925357;28;108451;-66
2022/05/05 04:14:19;;;;;;;;;;;;;;;;;;4925769;28;136988;-66
2022/05/05 04:16:45;;;;;;;;;;;;;;;;;;4922775;28;136453;-66
2022/05/05 04:19:11;;;;;;;;;;;;;;;;;;4920934;28;137699;-66
2022/05/05 04:21:38;;;;;;;;;;;;;;;;;;4932071;28;127815;-66
2022/05/05 04:24:04;;;;;;;;;;;;;;;;;;4926216;28;137575;-65
2022/05/05 04:26:30;;;;;;;;;;;;;;;;;;4922461;28;137110;-65
2022/05/05 04:28:57;;;;;;;;;;;;;;;;;;4930962;28;126493;-66
2022/05/05 04:31:23;;;;;;;;;;;;;;;;;;4920102;28;121930;-66
2022/05/05 04:33:49;;;;;;;;;;;;;;;;;;4919720;28;135941;-66
2022/05/05 04:36:16;;;;;;;;;;;;;;;;;;4930051;28;106123;-66
2022/05/05 04:38:42;;;;;;;;;;;;;;;;;;4912344;28;136955;-66
2022/05/05 04:41:08;;;;;;;;;;;;;;;;;;4927793;28;130125;-66
2022/05/05 04:43:35;;;;;;;;;;;;;;;;;;4930699;28;134766;-66
2022/05/05 04:46:01;;;;;;;;;;;;;;;;;;4922950;28;121785;-66
2022/05/05 04:48:27;;;;;;;;;;;;;;;;;;4930212;28;129661;-66
2022/05/05 04:50:54;;;;;;;;;;;;;;;;;;4925814;28;125718;-66
2022/05/05 04:53:20;;;;;;;;;;;;;;;;;;4929946;28;122790;-66
2022/05/05 04:55:46;;;;;;;;;;;;;;;;;;4921421;28;129854;-66
2022/05/05 04:58:12;;;;;;;;;;;;;;;;;;4929167;28;136579;-66
2022/05/05 05:00:39;;;;;;;;;;;;;;;;;;4927756;28;129278;-66
2022/05/05 05:03:32;;;;;;;;;;;;;;;;;;4930305;28;137257;-66
2022/05/05 05:05:52;;;;;;;;;;;;;;;;;;4943366;28;136143;-66
2022/05/05 05:08:18;;;;;;;;;;;;;;;;;;4928921;28;108980;-66
2022/05/05 05:10:44;;;;;;;;;;;;;;;;;;4924432;28;137645;-66
2022/05/05 05:13:14;;;;;;;;;;;;;;;;;;4924210;28;132064;-67
2022/05/05 05:15:41;;;;;;;;;;;;;;;;;;4925958;28;128927;-66
2022/05/05 05:18:07;;;;;;;;;;;;;;;;;;4928575;28;136424;-66
2022/05/05 05:20:33;;;;;;;;;;;;;;;;;;4933059;28;138003;-66
2022/05/05 05:23:00;;;;;;;;;;;;;;;;;;4928446;28;135403;-66
2022/05/05 05:25:26;;;;;;;;;;;;;;;;;;4926296;28;137091;-66
2022/05/05 05:27:52;;;;;;;;;;;;;;;;;;4930198;28;128516;-66
2022/05/05 05:30:37;;;;;;;;;;;;;;;;;;4924146;28;133868;-67
2022/05/05 05:33:03;;;;;;;;;;;;;;;;;;4928742;28;137401;-67
2022/05/05 05:35:30;;;;;;;;;;;;;;;;;;4927670;28;123846;-65
2022/05/05 05:37:56;;;;;;;;;;;;;;;;;;4929033;28;137165;-65
2022/05/05 05:40:22;;;;;;;;;;;;;;;;;;4926032;28;135638;-65
2022/05/05 05:42:49;;;;;;;;;;;;;;;;;;4933700;28;106051;-68
2022/05/05 05:45:15;;;;;;;;;;;;;;;;;;4928561;28;136974;-66
2022/05/05 05:47:41;;;;;;;;;;;;;;;;;;4925258;28;128353;-66
2022/05/05 05:50:08;;;;;;;;;;;;;;;;;;4928275;28;134529;-68
2022/05/05 05:52:34;;;;;;;;;;;;;;;;;;4928246;28;137799;-71
2022/05/05 05:55:00;;;;;;;;;;;;;;;;;;4930383;28;130056;-66
2022/05/05 05:57:28;;;;;;;;;;;;;;;;;;4930569;28;129931;-66
2022/05/05 05:59:54;;;;;;;;;;;;;;;;;;4929066;28;137324;-66
2022/05/05 06:05:06;;;;;;;;;;;;;;;;;;4930201;28;135788;-66
2022/05/05 06:07:32;;;;;;;;;;;;;;;;;;4926064;28;107812;-66
2022/05/05 06:09:59;;;;;;;;;;;;;;;;;;4924481;28;133539;-66
2022/05/05 06:12:25;;;;;;;;;;;;;;;;;;4926189;28;106085;-67
2022/05/05 06:14:51;;;;;;;;;;;;;;;;;;4926448;28;129319;-67
2022/05/05 06:17:18;;;;;;;;;;;;;;;;;;4926759;28;133895;-67
2022/05/05 06:19:44;;;;;;;;;;;;;;;;;;4925022;28;107288;-66
2022/05/05 06:22:11;;;;;;;;;;;;;;;;;;4925607;28;129002;-67
2022/05/05 06:24:37;;;;;;;;;;;;;;;;;;4927262;28;136786;-67
2022/05/05 06:27:03;;;;;;;;;;;;;;;;;;4930430;28;129326;-66
2022/05/05 06:29:30;;;;;;;;;;;;;;;;;;4929855;28;106760;-66
2022/05/05 06:31:56;;;;;;;;;;;;;;;;;;4925720;28;136389;-66
2022/05/05 06:34:23;;;;;;;;;;;;;;;;;;4923530;28;128953;-67
2022/05/05 06:36:49;;;;;;;;;;;;;;;;;;4927255;28;137250;-67
2022/05/05 06:39:15;;;;;;;;;;;;;;;;;;4926661;28;124188;-66
2022/05/05 06:41:42;;;;;;;;;;;;;;;;;;4927140;28;127981;-66
2022/05/05 06:44:08;;;;;;;;;;;;;;;;;;4922120;28;133191;-66
2022/05/05 06:46:35;;;;;;;;;;;;;;;;;;4929227;28;137445;-66
2022/05/05 06:49:01;;;;;;;;;;;;;;;;;;4926100;28;135025;-68
2022/05/05 06:51:27;;;;;;;;;;;;;;;;;;4912196;28;136789;-71
2022/05/05 06:53:54;;;;;;;;;;;;;;;;;;4910923;28;127896;-68
2022/05/05 06:56:20;;;;;;;;;;;;;;;;;;4912657;28;118181;-68
2022/05/05 06:58:46;;;;;;;;;;;;;;;;;;4927399;28;138177;-68
2022/05/05 07:06:43;;;;;;;;;;;;;;;;;;4927155;28;137437;-68
2022/05/05 07:11:54;;;;;;;;;;;;;;;;;;4925641;28;107189;-67
2022/05/05 07:14:20;;;;;;;;;;;;;;;;;;4927508;28;127678;-67
2022/05/05 07:16:47;;;;;;;;;;;;;;;;;;4921530;28;135216;-66
2022/05/05 07:19:13;;;;;;;;;;;;;;;;;;4928143;28;136160;-66
2022/05/05 07:21:39;;;;;;;;;;;;;;;;;;4925056;28;129118;-66
2022/05/05 07:24:05;;;;;;;;;;;;;;;;;;4937515;28;135198;-70
2022/05/05 07:26:32;;;;;;;;;;;;;;;;;;4917940;28;116516;-68
2022/05/05 07:28:58;;;;;;;;;;;;;;;;;;4928312;28;129013;-67
2022/05/05 07:31:24;;;;;;;;;;;;;;;;;;4927177;28;121748;-67
2022/05/05 07:33:51;;;;;;;;;;;;;;;;;;4927011;28;129314;-67
2022/05/05 07:36:17;;;;;;;;;;;;;;;;;;4925620;28;135226;-67
2022/05/05 07:38:43;;;;;;;;;;;;;;;;;;4925739;28;137080;-68
2022/05/05 07:41:10;;;;;;;;;;;;;;;;;;4920376;28;127875;-67
2022/05/05 07:43:37;;;;;;;;;;;;;;;;;;4911517;28;124910;-67
2022/05/05 07:46:03;;;;;;;;;;;;;;;;;;4923969;28;137035;-67
2022/05/05 07:48:29;;;;;;;;;;;;;;;;;;4918847;28;119623;-68
2022/05/05 07:50:56;;;;;;;;;;;;;;;;;;4924175;28;137026;-69
2022/05/05 07:53:22;;;;;;;;;;;;;;;;;;4928863;28;135087;-69
2022/05/05 07:55:48;;;;;;;;;;;;;;;;;;4932125;28;135175;-67
2022/05/05 07:58:14;;;;;;;;;;;;;;;;;;4930715;28;138201;-67
2022/05/05 08:00:41;;;;;;;;;;;;;;;;;;4923680;28;129398;-67
2022/05/05 08:03:07;;;;;;;;;;;;;;;;;;4933075;28;136373;-67
2022/05/05 08:05:33;;;;;;;;;;;;;;;;;;4925054;28;135664;-68
2022/05/05 08:08:00;;;;;;;;;;;;;;;;;;4908854;28;114208;-68
2022/05/05 08:10:28;;;;;;;;;;;;;;;;;;4907901;28;136576;-67
2022/05/05 08:12:55;;;;;;;;;;;;;;;;;;4915980;28;137225;-67
2022/05/05 08:15:22;;;;;;;;;;;;;;;;;;4908913;28;106314;-67
2022/05/05 08:17:48;;;;;;;;;;;;;;;;;;4911943;28;126608;-67
2022/05/05 08:20:15;;;;;;;;;;;;;;;;;;4911592;28;106119;-67
2022/05/05 08:22:41;;;;;;;;;;;;;;;;;;4916046;28;135377;-67
2022/05/05 08:28:28;;;;;;;;;;;;;;;;;;4852659;28;128410;-66
2022/05/05 08:30:54;;;;;;;;;;;;;;;;;;4905095;28;135170;-67
2022/05/05 08:33:20;;;;;;;;;;;;;;;;;;4911693;28;137044;-67
2022/05/05 08:35:46;;;;;;;;;;;;;;;;;;4914779;28;128496;-67
2022/05/05 08:38:14;;;;;;;;;;;;;;;;;;4911605;28;137528;-67
2022/05/05 08:40:41;;;;;;;;;;;;;;;;;;4907939;28;130935;-66
2022/05/05 08:43:08;;;;;;;;;;;;;;;;;;4909178;28;136241;-67
2022/05/05 08:45:34;;;;;;;;;;;;;;;;;;4913256;28;134528;-67
2022/05/05 08:48:00;;;;;;;;;;;;;;;;;;4909818;28;123705;-67
2022/05/05 08:50:27;;;;;;;;;;;;;;;;;;4907635;28;137843;-66
2022/05/05 08:52:53;;;;;;;;;;;;;;;;;;4921302;28;130776;-67
2022/05/05 08:55:20;;;;;;;;;;;;;;;;;;4904859;28;127431;-67
2022/05/05 08:57:46;;;;;;;;;;;;;;;;;;4913126;28;119216;-67
2022/05/05 09:00:13;;;;;;;;;;;;;;;;;;4913409;28;111637;-66
2022/05/05 09:02:39;;;;;;;;;;;;;;;;;;4911157;28;136692;-67
2022/05/05 09:05:06;;;;;;;;;;;;;;;;;;4933243;28;138037;-67
2022/05/05 09:07:32;;;;;;;;;;;;;;;;;;4908365;28;129269;-67
2022/05/05 09:09:58;;;;;;;;;;;;;;;;;;4907180;28;118343;-67
2022/05/05 09:12:25;;;;;;;;;;;;;;;;;;4906226;28;107270;-67
2022/05/05 09:14:52;;;;;;;;;;;;;;;;;;4905406;28;130499;-67
2022/05/05 09:17:19;;;;;;;;;;;;;;;;;;4906956;28;136303;-67
2022/05/05 09:19:45;;;;;;;;;;;;;;;;;;4911007;28;116226;-67
2022/05/05 09:22:12;;;;;;;;;;;;;;;;;;4904416;28;137589;-67
2022/05/05 09:24:42;;;;;;;;;;;;;;;;;;4909675;28;118571;-67
2022/05/05 09:27:08;;;;;;;;;;;;;;;;;;4904750;28;129310;-67
2022/05/05 09:29:35;;;;;;;;;;;;;;;;;;4905783;28;136527;-69
2022/05/05 09:32:01;;;;;;;;;;;;;;;;;;4909452;28;128097;-68
2022/05/05 09:34:27;;;;;;;;;;;;;;;;;;4906624;28;126547;-68
2022/05/05 09:36:53;;;;;;;;;;;;;;;;;;4905687;28;135540;-67
2022/05/05 09:39:20;;;;;;;;;;;;;;;;;;4909360;28;137163;-67
2022/05/05 09:41:46;;;;;;;;;;;;;;;;;;4903025;28;130278;-67
2022/05/05 09:44:14;;;;;;;;;;;;;;;;;;4906316;28;137039;-67
2022/05/05 09:46:43;;;;;;;;;;;;;;;;;;4900466;28;130246;-68
2022/05/05 09:49:14;;;;;;;;;;;;;;;;;;4908594;28;105934;-67
2022/05/05 09:51:43;;;;;;;;;;;;;;;;;;4907102;28;111465;-67
2022/05/05 09:59:40;;;;;;;;;;;;;;;;;;4900895;28;107249;-66
2022/05/05 10:02:12;;;;;;;;;;;;;;;;;;4909749;28;107019;-67
2022/05/05 10:04:39;;;;;;;;;;;;;;;;;;4918071;28;138294;-66
2022/05/05 10:07:05;;;;;;;;;;;;;;;;;;4918702;28;129426;-66
2022/05/05 10:09:31;;;;;;;;;;;;;;;;;;4927819;28;105880;-66
2022/05/05 10:11:58;;;;;;;;;;;;;;;;;;4925709;28;138701;-68
2022/05/05 10:14:25;;;;;;;;;;;;;;;;;;4928664;28;110242;-66
2022/05/05 10:16:51;;;;;;;;;;;;;;;;;;4923337;28;133687;-66
2022/05/05 10:19:18;;;;;;;;;;;;;;;;;;4924927;28;138599;-66
2022/05/05 10:21:44;;;;;;;;;;;;;;;;;;4927728;28;128722;-66
2022/05/05 10:24:11;;;;;;;;;;;;;;;;;;4928000;28;133817;-66
2022/05/05 10:26:37;;;;;;;;;;;;;;;;;;4927920;28;130615;-66
2022/05/05 10:29:03;;;;;;;;;;;;;;;;;;4926171;28;135022;-66
2022/05/05 10:31:37;;;;;;;;;;;;;;;;;;4916841;28;135827;-66
2022/05/05 10:34:04;;;;;;;;;;;;;;;;;;4926025;28;127891;-66
2022/05/05 10:36:31;;;;;;;;;;;;;;;;;;4927290;28;128728;-66
2022/05/05 10:38:57;;;;;;;;;;;;;;;;;;4922816;28;135863;-67
2022/05/05 10:41:23;;;;;;;;;;;;;;;;;;4909898;28;128345;-66
2022/05/05 10:43:50;;;;;;;;;;;;;;;;;;4924693;28;137932;-66
2022/05/05 10:46:16;;;;;;;;;;;;;;;;;;4928132;28;133843;-66
2022/05/05 10:48:42;;;;;;;;;;;;;;;;;;4924327;28;135135;-66
2022/05/05 10:51:09;;;;;;;;;;;;;;;;;;4924849;28;136743;-66
2022/05/05 10:53:36;;;;;;;;;;;;;;;;;;4924433;28;129561;-66
2022/05/05 10:56:03;;;;;;;;;;;;;;;;;;4928013;28;137361;-67
2022/05/05 10:58:29;;;;;;;;;;;;;;;;;;4926680;28;106862;-67
2022/05/05 11:00:56;;;;;;;;;;;;;;;;;;4920928;28;126923;-67
2022/05/05 11:03:22;;;;;;;;;;;;;;;;;;4921269;28;137377;-67
2022/05/05 11:05:48;;;;;;;;;;;;;;;;;;4924837;28;137173;-67
2022/05/05 11:08:17;;;;;;;;;;;;;;;;;;4922560;28;128350;-67
2022/05/05 11:10:47;;;;;;;;;;;;;;;;;;4908255;28;130827;-67
2022/05/05 11:13:13;;;;;;;;;;;;;;;;;;4922816;28;129345;-66
2022/05/05 11:23:54;;;;;;;;;;;;;;;;;;4925189;28;128441;-66
2022/05/05 11:26:21;;;;;;;;;;;;;;;;;;4921935;28;137412;-66
2022/05/05 11:28:48;;;;;;;;;;;;;;;;;;4922959;28;128096;-68
2022/05/05 11:31:14;;;;;;;;;;;;;;;;;;4930182;28;136594;-67
2022/05/05 11:33:40;;;;;;;;;;;;;;;;;;4917480;28;128025;-67
2022/05/05 11:36:07;;;;;;;;;;;;;;;;;;4923858;28;113493;-67
2022/05/05 11:38:33;;;;;;;;;;;;;;;;;;4926358;28;135911;-67
2022/05/05 11:41:00;;;;;;;;;;;;;;;;;;4918512;28;128182;-67
2022/05/05 11:46:12;;;;;;;;;;;;;;;;;;4924792;28;137009;-67
2022/05/05 11:48:38;;;;;;;;;;;;;;;;;;4920396;28;129221;-67
2022/05/05 11:51:06;;;;;;;;;;;;;;;;;;4921359;28;136616;-67
2022/05/05 11:53:35;;;;;;;;;;;;;;;;;;4922528;28;108576;-67
2022/05/05 11:56:01;;;;;;;;;;;;;;;;;;4926448;28;120663;-66
2022/05/05 12:03:58;;;;;;;;;;;;;;;;;;4924490;28;131713;-66
2022/05/05 12:06:24;;;;;;;;;;;;;;;;;;4924983;28;136983;-67
2022/05/05 12:08:50;;;;;;;;;;;;;;;;;;4925515;28;129880;-66
2022/05/05 12:11:16;;;;;;;;;;;;;;;;;;4919911;28;137447;-67
2022/05/05 12:13:43;;;;;;;;;;;;;;;;;;4925153;28;136339;-67
2022/05/05 12:16:12;;;;;;;;;;;;;;;;;;4922035;28;127384;-67
2022/05/05 12:18:39;;;;;;;;;;;;;;;;;;4927011;28;115749;-67
2022/05/05 12:21:05;;;;;;;;;;;;;;;;;;4917023;28;129393;-67
2022/05/05 12:23:32;;;;;;;;;;;;;;;;;;4918447;28;136904;-67
2022/05/05 12:26:00;;;;;;;;;;;;;;;;;;4926034;28;135820;-66
2022/05/05 12:28:29;;;;;;;;;;;;;;;;;;4921014;28;128758;-66
2022/05/05 12:30:55;;;;;;;;;;;;;;;;;;4923168;28;134112;-67
2022/05/05 12:33:21;;;;;;;;;;;;;;;;;;4925908;28;136634;-68
2022/05/05 12:35:48;;;;;;;;;;;;;;;;;;4928006;28;117971;-67
2022/05/05 12:38:14;;;;;;;;;;;;;;;;;;4923663;28;129871;-68
2022/05/05 12:40:42;;;;;;;;;;;;;;;;;;4919547;28;127831;-68
2022/05/05 12:43:09;;;;;;;;;;;;;;;;;;4922113;28;136011;-66
2022/05/05 12:45:35;;;;;;;;;;;;;;;;;;4917294;28;123524;-66
2022/05/05 12:48:01;;;;;;;;;;;;;;;;;;4925522;28;130094;-66
2022/05/05 12:50:29;;;;;;;;;;;;;;;;;;4927048;28;107453;-66
2022/05/05 13:01:14;;;;;;;;;;;;;;;;;;4924210;28;129566;-66
2022/05/05 13:03:42;;;;;;;;;;;;;;;;;;4926380;28;119846;-66
2022/05/05 13:06:11;;;;;;;;;;;;;;;;;;4910037;28;136092;-68
2022/05/05 13:08:48;;;;;;;;;;;;;;;;;;4911307;28;112111;-66
2022/05/05 13:11:17;;;;;;;;;;;;;;;;;;4910085;28;107468;-66
2022/05/05 13:13:43;;;;;;;;;;;;;;;;;;4906161;28;135728;-66
2022/05/05 13:16:10;;;;;;;;;;;;;;;;;;4907393;28;129761;-66
2022/05/05 13:18:37;;;;;;;;;;;;;;;;;;4894052;28;107586;-68
2022/05/05 13:21:03;;;;;;;;;;;;;;;;;;4908229;28;135909;-66
2022/05/05 13:23:30;;;;;;;;;;;;;;;;;;4909053;28;121253;-67
2022/05/05 13:25:56;;;;;;;;;;;;;;;;;;4911275;28;133154;-65
2022/05/05 13:28:22;;;;;;;;;;;;;;;;;;4906486;28;130201;-68
2022/05/05 13:30:49;;;;;;;;;;;;;;;;;;4907880;28;137468;-66
2022/05/05 13:33:15;;;;;;;;;;;;;;;;;;4904354;28;137187;-67
2022/05/05 13:35:41;;;;;;;;;;;;;;;;;;4908864;28;125803;-67
2022/05/05 13:38:08;;;;;;;;;;;;;;;;;;4908856;28;122947;-66
2022/05/05 13:40:35;;;;;;;;;;;;;;;;;;4907101;28;136024;-68
2022/05/05 13:43:01;;;;;;;;;;;;;;;;;;4911791;28;129551;-67
2022/05/05 13:45:27;;;;;;;;;;;;;;;;;;4903085;28;136949;-67
2022/05/05 13:47:54;;;;;;;;;;;;;;;;;;4903808;28;107232;-67
2022/05/05 13:50:20;;;;;;;;;;;;;;;;;;4900744;28;135451;-66
2022/05/05 13:52:46;;;;;;;;;;;;;;;;;;4907424;28;137497;-66
2022/05/05 13:55:13;;;;;;;;;;;;;;;;;;4900932;28;128356;-66
2022/05/05 13:57:40;;;;;;;;;;;;;;;;;;4907651;28;135264;-66
2022/05/05 14:00:06;;;;;;;;;;;;;;;;;;4906334;28;138042;-66
2022/05/05 14:02:37;;;;;;;;;;;;;;;;;;4897572;28;127862;-66
2022/05/05 14:05:04;;;;;;;;;;;;;;;;;;4920470;28;137489;-67
2022/05/05 14:13:02;;;;;;;;;;;;;;;;;;4909187;28;128060;-67
2022/05/05 14:15:28;;;;;;;;;;;;;;;;;;4891740;28;128406;-67
2022/05/05 14:17:54;;;;;;;;;;;;;;;;;;4902070;28;136832;-68
2022/05/05 14:20:25;;;;;;;;;;;;;;;;;;4900242;28;107362;-66
2022/05/05 14:22:52;;;;;;;;;;;;;;;;;;4909714;28;105728;-68
2022/05/05 14:25:19;;;;;;;;;;;;;;;;;;4897025;28;136167;-66
2022/05/05 14:27:46;;;;;;;;;;;;;;;;;;4905842;28;106363;-66
2022/05/05 14:30:12;;;;;;;;;;;;;;;;;;4905118;28;136593;-66
2022/05/05 14:32:39;;;;;;;;;;;;;;;;;;4901649;28;137699;-66
2022/05/05 14:35:05;;;;;;;;;;;;;;;;;;4904206;28;129096;-66
2022/05/05 14:37:31;;;;;;;;;;;;;;;;;;4905084;28;137267;-66
2022/05/05 14:39:58;;;;;;;;;;;;;;;;;;4906255;28;124493;-67
2022/05/05 14:42:25;;;;;;;;;;;;;;;;;;4906883;28;129232;-67
2022/05/05 14:44:51;;;;;;;;;;;;;;;;;;4907158;28;135429;-67
2022/05/05 14:47:17;;;;;;;;;;;;;;;;;;4910154;28;137901;-67
2022/05/05 14:49:48;;;;;;;;;;;;;;;;;;4907585;28;136606;-67
2022/05/05 14:52:14;;;;;;;;;;;;;;;;;;4904933;28;116218;-66
2022/05/05 14:54:41;;;;;;;;;;;;;;;;;;4907942;28;126448;-66
2022/05/05 14:57:08;;;;;;;;;;;;;;;;;;4903178;28;106954;-66
2022/05/05 14:59:35;;;;;;;;;;;;;;;;;;4907275;28;136940;-67
2022/05/05 15:02:01;;;;;;;;;;;;;;;;;;4901952;28;129275;-66
2022/05/05 15:04:27;;;;;;;;;;;;;;;;;;4912551;28;108853;-67
2022/05/05 15:06:54;;;;;;;;;;;;;;;;;;4919025;28;137871;-67
2022/05/05 15:09:22;;;;;;;;;;;;;;;;;;4929464;28;106221;-67
2022/05/05 15:11:48;;;;;;;;;;;;;;;;;;4919632;28;127778;-67
2022/05/05 15:14:14;;;;;;;;;;;;;;;;;;4927688;28;128150;-66
2022/05/05 15:16:41;;;;;;;;;;;;;;;;;;4922761;28;138038;-67
2022/05/05 15:19:07;;;;;;;;;;;;;;;;;;4924565;28;137010;-66
2022/05/05 15:21:33;;;;;;;;;;;;;;;;;;4923030;28;129352;-66
2022/05/05 15:24:00;;;;;;;;;;;;;;;;;;4918978;28;134710;-67
2022/05/05 15:26:26;;;;;;;;;;;;;;;;;;4925573;28;135858;-66
2022/05/05 15:28:57;;;;;;;;;;;;;;;;;;4925035;28;128584;-69
2022/05/05 15:31:26;;;;;;;;;;;;;;;;;;4928873;28;135707;-67
2022/05/05 15:33:52;;;;;;;;;;;;;;;;;;4924991;28;128526;-67
2022/05/05 15:36:18;;;;;;;;;;;;;;;;;;4926733;28;134742;-67
2022/05/05 15:38:45;;;;;;;;;;;;;;;;;;4926346;28;137763;-68
2022/05/05 15:41:11;;;;;;;;;;;;;;;;;;4916359;28;125441;-65
2022/05/05 15:43:37;;;;;;;;;;;;;;;;;;4926075;28;136146;-64
2022/05/05 15:46:04;;;;;;;;;;;;;;;;;;4918616;28;137793;-69
2022/05/05 15:48:39;;;;;;;;;;;;;;;;;;4930809;28;121514;-64
2022/05/05 15:51:05;;;;;;;;;;;;;;;;;;4919623;28;136995;-66
2022/05/05 15:53:32;;;;;;;;;;;;;;;;;;4927010;28;107744;-66
2022/05/05 15:55:58;;;;;;;;;;;;;;;;;;4921041;28;110649;-65
2022/05/05 15:58:25;;;;;;;;;;;;;;;;;;4914281;28;113375;-66
2022/05/05 16:00:51;;;;;;;;;;;;;;;;;;4919074;28;126838;-66
2022/05/05 16:03:18;;;;;;;;;;;;;;;;;;4922786;28;135601;-67
2022/05/05 16:05:44;;;;;;;;;;;;;;;;;;4916263;28;137145;-66
2022/05/05 16:08:11;;;;;;;;;;;;;;;;;;4915913;28;129489;-66
2022/05/05 16:10:37;;;;;;;;;;;;;;;;;;4906613;28;108874;-66
2022/05/05 16:13:04;;;;;;;;;;;;;;;;;;4916430;28;136347;-65
2022/05/05 16:15:30;;;;;;;;;;;;;;;;;;4920929;28;116079;-66
2022/05/05 16:17:56;;;;;;;;;;;;;;;;;;4924749;28;106191;-68
2022/05/05 16:20:23;;;;;;;;;;;;;;;;;;4924578;28;106285;-68
2022/05/05 16:22:49;;;;;;;;;;;;;;;;;;4916913;28;134908;-66
2022/05/05 16:30:45;;;;;;;;;;;;;;;;;;4912637;28;135514;-66
2022/05/05 16:33:11;;;;;;;;;;;;;;;;;;4925914;28;118337;-66
2022/05/05 16:35:38;;;;;;;;;;;;;;;;;;4917076;28;130001;-66
2022/05/05 16:38:06;;;;;;;;;;;;;;;;;;4919609;28;136469;-68
2022/05/05 16:40:32;;;;;;;;;;;;;;;;;;4915479;28;127957;-68
2022/05/05 16:42:59;;;;;;;;;;;;;;;;;;4924828;28;137479;-70
2022/05/05 16:45:26;;;;;;;;;;;;;;;;;;4925797;28;125875;-66
2022/05/05 16:47:52;;;;;;;;;;;;;;;;;;4927300;28;121759;-68
2022/05/05 16:50:18;;;;;;;;;;;;;;;;;;4926925;28;135472;-67
2022/05/05 16:52:45;;;;;;;;;;;;;;;;;;4914192;28;137707;-70
2022/05/05 16:55:11;;;;;;;;;;;;;;;;;;4921647;28;127591;-68
2022/05/05 16:57:42;;;;;;;;;;;;;;;;;;4929684;28;136668;-68
2022/05/05 17:00:08;;;;;;;;;;;;;;;;;;4925643;28;127161;-69
2022/05/05 17:02:34;;;;;;;;;;;;;;;;;;4926120;28;136779;-69
2022/05/05 17:05:01;;;;;;;;;;;;;;;;;;4923582;28;135895;-67
2022/05/05 17:07:27;;;;;;;;;;;;;;;;;;4926690;28;128747;-69
2022/05/05 17:09:53;;;;;;;;;;;;;;;;;;4926329;28;137008;-67
2022/05/05 17:12:20;;;;;;;;;;;;;;;;;;4927498;28;137039;-71
2022/05/05 17:14:46;;;;;;;;;;;;;;;;;;4922868;28;130275;-68
2022/05/05 17:17:13;;;;;;;;;;;;;;;;;;4924534;28;132688;-67
2022/05/05 17:19:39;;;;;;;;;;;;;;;;;;4931448;28;107304;-69
2022/05/05 17:22:05;;;;;;;;;;;;;;;;;;4925352;28;128642;-67
2022/05/05 17:24:32;;;;;;;;;;;;;;;;;;4929298;28;136751;-67
2022/05/05 17:26:58;;;;;;;;;;;;;;;;;;4917605;28;129271;-70
2022/05/05 17:29:24;;;;;;;;;;;;;;;;;;4925704;28;126682;-68
2022/05/05 17:31:51;;;;;;;;;;;;;;;;;;4927353;28;137849;-67
2022/05/05 17:34:17;;;;;;;;;;;;;;;;;;4941402;28;128168;-67
2022/05/05 17:36:43;;;;;;;;;;;;;;;;;;4918656;28;135031;-68